Decoded Metar for KPRC (PRESCOTT in AZ, USA) (IATA:PRC) | Meteo·Mobile Aviation Weather
aviador You're here:

KPRC Decoded Metar

PRESCOTT in AZ, USA
Report Time2019-05-22 06:53:00
UTC Time2019-05-22 07:39:59
Flight Rules vfr VFR
Wind180° at 05 kt
W.Decomp.*RWY 21: 3.7 kt HW 3.4 kt LCW
RWY 12: 3.4 kt HW 3.7 kt RCW
Visibility9999 m
Phenomena:N/A
Clouds:Overcast 046 Hf
Expected CloudBase > 4,400 ft AGL from Temp-Dew spread
Ceiling4,600 ft
Temp10°C (ISA +5)
Dew Point-1°C (47% RH)
AAT6.1°C
QNH1006 hPa
Density Alt5,906 ft
Elevation5,000 ft
Report Wrong Elevation
Raw Report
KPRC 220653Z AUTO 18005KT 10SM OVC046 10/M01 A2970 RMK AO2 SLP006
T01001011 401670028=

Extra information for KPRC:More info

Metar Taf Metar & Taf Last 4 Metars F.Rules Stats Wind Profile Meteogram Temp Stats Airport Information Weather charts Add Link Nearby VenuesMetar ALERT Operation Metar Decoded Social comments

AIRNAV info for KPRC